createdAt,value
2019-04-11T00:01:14.217Z,11.23
2019-04-11T00:02:22.697Z,11.19
2019-04-11T00:03:27.912Z,11.11
2019-04-11T00:04:32.848Z,11.28
2019-04-11T00:05:39.121Z,11.37
2019-04-11T00:06:44.197Z,11.85
2019-04-11T00:07:49.475Z,11.30
2019-04-11T00:08:54.421Z,11.08
2019-04-11T00:09:59.889Z,11.32
2019-04-11T00:11:05.828Z,11.15
2019-04-11T00:12:10.966Z,11.17
2019-04-11T00:13:21.560Z,10.92
2019-04-11T00:14:22.647Z,11.17
2019-04-11T00:15:28.803Z,10.95
2019-04-11T00:16:34.137Z,11.10
2019-04-11T00:17:38.726Z,11.03
2019-04-11T00:18:44.930Z,10.87
2019-04-11T00:19:49.922Z,10.83
2019-04-11T00:20:56.154Z,11.02
2019-04-11T00:22:01.750Z,11.08
2019-04-11T00:23:06.472Z,10.92
2019-04-11T00:24:12.270Z,10.81
2019-04-11T00:25:17.718Z,11.00
2019-04-11T00:26:22.825Z,10.89
2019-04-11T00:27:28.786Z,10.98
2019-04-11T00:28:34.034Z,10.92
2019-04-11T00:29:39.290Z,10.98
2019-04-11T00:30:44.163Z,10.94
2019-04-11T00:31:49.671Z,10.85
2019-04-11T00:32:54.633Z,10.99
2019-04-11T00:34:02.567Z,10.76
2019-04-11T00:35:07.296Z,10.69
2019-04-11T00:36:12.500Z,10.63
2019-04-11T00:37:17.216Z,10.68
2019-04-11T00:38:23.503Z,10.80
2019-04-11T00:39:28.309Z,10.78
2019-04-11T00:40:33.775Z,10.81
2019-04-11T00:41:39.706Z,10.73
2019-04-11T00:42:45.136Z,10.77
2019-04-11T00:43:50.485Z,10.83
2019-04-11T00:44:57.115Z,10.74
2019-04-11T00:46:02.946Z,10.79
2019-04-11T00:47:07.624Z,10.67
2019-04-11T00:48:13.312Z,10.75
2019-04-11T00:49:18.665Z,10.70
2019-04-11T00:50:23.975Z,10.62
2019-04-11T00:51:29.207Z,10.67
2019-04-11T00:52:34.411Z,10.73
2019-04-11T00:53:40.361Z,10.80
2019-04-11T00:54:45.475Z,10.51
2019-04-11T00:55:51.438Z,10.53
2019-04-11T00:56:56.776Z,10.65
2019-04-11T00:58:03.535Z,10.47
2019-04-11T00:59:08.444Z,10.45
2019-04-11T01:00:13.390Z,10.50
2019-04-11T01:01:18.351Z,10.55
2019-04-11T01:02:23.564Z,10.17
2019-04-11T01:03:28.717Z,10.38
2019-04-11T01:04:34.859Z,10.58
2019-04-11T01:05:39.637Z,10.54
2019-04-11T01:06:44.884Z,10.48
2019-04-11T01:07:49.861Z,10.62
2019-04-11T01:08:55.795Z,10.60
2019-04-11T01:10:01.032Z,10.34
2019-04-11T01:11:05.868Z,10.43
2019-04-11T01:12:12.173Z,10.41
2019-04-11T01:13:17.671Z,10.31
2019-04-11T01:14:23.694Z,10.34
2019-04-11T01:15:29.343Z,10.45
2019-04-11T01:16:50.454Z,10.09
2019-04-11T03:25:49.075Z,9.07
2019-04-11T03:26:56.432Z,8.87
2019-04-11T03:28:02.090Z,8.95
2019-04-11T03:29:08.769Z,8.95
2019-04-11T03:30:19.541Z,9.01
2019-04-11T03:32:02.436Z,9.03
2019-04-11T03:36:37.410Z,9.02
2019-04-11T03:38:27.662Z,9.01
2019-04-11T03:39:29.186Z,8.92
2019-04-11T03:40:30.442Z,8.73
2019-04-11T03:41:42.545Z,8.38
2019-04-11T03:42:43.342Z,8.33
2019-04-11T03:43:48.685Z,8.56
2019-04-11T03:44:47.682Z,8.39
2019-04-11T03:46:14.307Z,8.55
2019-04-11T03:47:16.720Z,8.57
2019-04-11T03:48:27.570Z,8.47
2019-04-11T03:49:29.225Z,8.83
2019-04-11T03:50:29.880Z,8.81
2019-04-11T03:51:33.991Z,8.76
2019-04-11T03:52:40.770Z,8.50
2019-04-11T03:53:47.248Z,8.64
2019-04-11T03:54:51.875Z,8.59
2019-04-11T03:55:56.785Z,8.88
2019-04-11T03:57:03.475Z,8.97
2019-04-11T03:58:09.180Z,8.82
2019-04-11T03:59:16.601Z,8.64
2019-04-11T04:00:22.167Z,8.86
2019-04-11T04:01:29.647Z,8.76
2019-04-11T04:02:37.127Z,8.75
2019-04-11T04:03:42.631Z,8.75
2019-04-11T04:04:49.347Z,8.90
2019-04-11T04:05:57.225Z,8.70
2019-04-11T04:07:04.759Z,8.60
2019-04-11T04:08:10.881Z,8.59
2019-04-11T04:09:17.068Z,8.86
2019-04-11T04:10:23.757Z,8.57
2019-04-11T04:11:30.474Z,8.64
2019-04-11T04:12:35.804Z,8.47
2019-04-11T04:13:45.984Z,8.49
2019-04-11T04:15:04.553Z,8.61
2019-04-11T04:16:24.382Z,8.58
2019-04-11T04:17:55.256Z,8.47
2019-04-11T04:19:16.246Z,8.48
2019-04-11T04:20:49.072Z,8.45
2019-04-11T04:22:03.161Z,8.34
2019-04-11T04:23:21.832Z,8.47
2019-04-11T04:24:37.888Z,8.50
2019-04-11T04:25:42.734Z,8.60
2019-04-11T04:26:48.494Z,8.26
2019-04-11T04:27:54.721Z,8.46
2019-04-11T04:29:02.097Z,8.52
2019-04-11T04:30:08.634Z,8.63
2019-04-11T04:31:14.103Z,8.51
2019-04-11T04:32:23.189Z,8.50
2019-04-11T04:33:29.329Z,8.33
2019-04-11T04:34:36.061Z,8.41
2019-04-11T04:35:42.939Z,8.65
2019-04-11T04:36:49.683Z,8.46
2019-04-11T04:37:56.793Z,8.29
2019-04-11T04:39:03.567Z,8.04
2019-04-11T04:40:25.461Z,8.31
2019-04-11T04:41:28.169Z,8.30
2019-04-11T04:42:30.835Z,8.39
2019-04-11T04:43:31.690Z,8.59
2019-04-11T04:44:37.943Z,8.53
2019-04-11T04:46:03.401Z,8.38
2019-04-11T04:47:00.223Z,8.52
2019-04-11T04:48:02.605Z,8.70
2019-04-11T04:49:04.661Z,8.55
2019-04-11T04:50:11.066Z,8.74
2019-04-11T04:51:18.357Z,8.41
2019-04-11T04:52:25.234Z,8.53
2019-04-11T04:53:33.163Z,8.56
2019-04-11T04:54:38.648Z,8.61
2019-04-11T04:55:43.731Z,8.35
2019-04-11T04:56:50.429Z,8.56
2019-04-11T04:57:57.692Z,8.58
2019-04-11T04:59:04.988Z,8.24
2019-04-11T05:00:11.750Z,8.59
2019-04-11T05:01:17.570Z,8.56
2019-04-11T05:02:24.104Z,8.73
2019-04-11T05:03:29.859Z,8.64
2019-04-11T05:04:36.096Z,8.61
2019-04-11T05:05:42.461Z,8.86
2019-04-11T05:06:48.974Z,8.73
2019-04-11T05:07:56.159Z,8.61
2019-04-11T05:09:01.320Z,8.86
2019-04-11T05:10:07.145Z,8.76
2019-04-11T05:11:13.967Z,8.79
2019-04-11T05:12:20.528Z,8.88
2019-04-11T05:13:25.907Z,8.72
2019-04-11T05:14:31.702Z,8.62
2019-04-11T05:15:36.980Z,8.78
2019-04-11T05:16:42.223Z,8.52
2019-04-11T05:17:48.807Z,8.41
2019-04-11T05:18:54.719Z,8.60
2019-04-11T05:19:59.834Z,8.35
2019-04-11T05:21:05.336Z,8.74
2019-04-11T05:22:10.584Z,8.54
2019-04-11T05:23:15.286Z,8.71
2019-04-11T05:24:20.798Z,8.70
2019-04-11T05:25:26.486Z,8.68
2019-04-11T05:26:31.442Z,8.78
2019-04-11T05:27:36.033Z,9.01
2019-04-11T05:28:40.821Z,8.99
2019-04-11T05:29:45.906Z,8.78
2019-04-11T05:30:51.287Z,8.88
2019-04-11T05:31:56.722Z,8.91
2019-04-11T05:33:01.810Z,8.73
2019-04-11T05:34:07.806Z,8.82
2019-04-11T05:35:12.627Z,8.83
2019-04-11T05:36:18.588Z,8.99
2019-04-11T05:37:23.821Z,8.85
2019-04-11T05:38:29.288Z,8.95
2019-04-11T05:39:34.434Z,8.94
2019-04-11T05:40:39.834Z,9.11
2019-04-11T05:41:46.675Z,9.04
2019-04-11T05:42:54.120Z,9.16
2019-04-11T05:44:03.475Z,9.18
2019-04-11T05:45:08.523Z,9.21
2019-04-11T05:46:26.368Z,8.86
2019-04-11T05:47:19.967Z,8.88
2019-04-11T05:48:43.045Z,8.78
2019-04-11T05:50:09.219Z,8.92
2019-04-11T05:51:13.558Z,8.88
2019-04-11T05:52:19.801Z,8.87
2019-04-11T05:53:24.988Z,8.75
2019-04-11T05:54:36.467Z,8.82
2019-04-11T05:55:45.433Z,8.69
2019-04-11T05:56:59.156Z,9.21
2019-04-11T05:58:08.642Z,9.08
2019-04-11T05:59:20.394Z,9.26
2019-04-11T06:00:58.295Z,9.22
2019-04-11T06:02:11.069Z,9.32
2019-04-11T06:03:16.085Z,9.29
2019-04-11T06:04:28.900Z,9.45
2019-04-11T06:05:40.841Z,9.39
2019-04-11T06:06:58.140Z,9.50
2019-04-11T06:08:06.807Z,9.72
2019-04-11T06:09:16.328Z,9.72
2019-04-11T06:10:26.136Z,9.84
2019-04-11T06:11:53.438Z,9.98
2019-04-11T06:13:16.431Z,9.76
2019-04-11T06:14:39.733Z,10.06
2019-04-11T06:15:47.213Z,10.28
2019-04-11T06:16:57.073Z,10.41
2019-04-11T06:18:04.870Z,10.29
2019-04-11T06:19:26.795Z,10.30
2019-04-11T06:20:47.264Z,10.47
2019-04-11T06:21:55.877Z,10.48
2019-04-11T06:23:09.896Z,10.17
2019-04-11T06:24:32.847Z,10.51
2019-04-11T06:25:55.705Z,10.53
2019-04-11T06:27:09.262Z,10.66
2019-04-11T06:28:20.353Z,10.76
2019-04-11T06:29:31.106Z,10.79
2019-04-11T06:30:58.970Z,10.51
2019-04-11T06:32:23.552Z,11.05
2019-04-11T06:33:34.766Z,11.26
2019-04-11T06:34:45.091Z,11.39
2019-04-11T06:36:18.158Z,11.46
2019-04-11T06:37:59.101Z,11.23
2019-04-11T06:39:25.241Z,11.40
2019-04-11T06:40:34.747Z,11.73
2019-04-11T06:41:58.971Z,11.44
2019-04-11T06:43:10.111Z,11.54
2019-04-11T06:44:27.895Z,11.97
2019-04-11T06:45:50.461Z,11.76
2019-04-11T06:47:16.690Z,12.18
2019-04-11T06:48:36.120Z,12.50
2019-04-11T06:49:47.060Z,12.76
2019-04-11T06:50:57.647Z,13.04
2019-04-11T06:52:05.008Z,13.48
2019-04-11T06:53:11.512Z,13.48
2019-04-11T06:54:16.965Z,13.86
2019-04-11T06:55:39.644Z,13.61
2019-04-11T06:56:47.569Z,14.07
2019-04-11T06:57:54.229Z,15.20
2019-04-11T06:59:12.464Z,15.82
2019-04-11T07:00:17.773Z,17.10
2019-04-11T07:01:25.847Z,19.04
2019-04-11T07:02:32.162Z,20.91
2019-04-11T07:03:42.659Z,20.82
2019-04-11T07:04:53.764Z,20.99
2019-04-11T07:06:00.791Z,22.81
2019-04-11T07:07:09.412Z,22.95
2019-04-11T07:08:14.492Z,20.31
2019-04-11T07:09:37.486Z,20.10
2019-04-11T07:10:48.847Z,22.19
2019-04-11T07:11:57.340Z,22.11
2019-04-11T07:13:07.771Z,21.86
2019-04-11T07:14:31.249Z,20.06
2019-04-11T07:15:46.326Z,19.72
2019-04-11T07:17:10.656Z,19.28
2019-04-11T07:18:53.156Z,18.81
2019-04-11T07:20:27.276Z,18.87
2019-04-11T07:21:35.614Z,19.62
2019-04-11T07:22:59.494Z,22.99
2019-04-11T07:24:28.123Z,23.84
2019-04-11T07:25:45.532Z,24.53
2019-04-11T07:27:00.942Z,24.17
2019-04-11T07:28:18.682Z,26.10
2019-04-11T07:29:42.183Z,26.22
2019-04-11T07:31:04.821Z,27.77
2019-04-11T07:32:14.144Z,27.34
2019-04-11T07:33:45.061Z,27.50
2019-04-11T07:35:27.806Z,27.75
2019-04-11T07:36:51.761Z,28.78
2019-04-11T07:37:58.297Z,28.34
2019-04-11T07:39:14.537Z,26.47
2019-04-11T07:40:29.252Z,29.45
2019-04-11T07:42:02.663Z,29.89
2019-04-11T07:43:17.576Z,29.61
2019-04-11T07:44:23.912Z,29.55
2019-04-11T07:45:34.396Z,30.73
2019-04-11T07:47:13.665Z,31.03
2019-04-11T07:48:19.413Z,28.65
2019-04-11T07:49:30.677Z,28.53
2019-04-11T07:50:35.675Z,28.18
2019-04-11T07:51:50.783Z,27.84
2019-04-11T07:53:01.280Z,27.04
2019-04-11T07:54:18.071Z,27.70
2019-04-11T07:55:25.794Z,26.03
2019-04-11T07:56:44.956Z,25.12
2019-04-11T07:57:53.055Z,24.19
2019-04-11T07:59:00.820Z,23.65
2019-04-11T08:00:36.645Z,23.19
2019-04-11T08:01:42.570Z,22.78
2019-04-11T08:03:19.183Z,23.46
2019-04-11T08:04:49.559Z,25.38
2019-04-11T08:06:07.461Z,26.60
2019-04-11T08:07:32.719Z,27.66
2019-04-11T08:08:55.960Z,30.33
2019-04-11T08:10:06.280Z,31.03
2019-04-11T08:11:42.146Z,29.57
2019-04-11T08:12:47.950Z,29.12
2019-04-11T08:14:18.382Z,28.45
2019-04-11T08:15:42.052Z,31.78
2019-04-11T08:17:05.084Z,31.37
2019-04-11T08:18:17.368Z,29.46
2019-04-11T08:19:53.566Z,32.22
2019-04-11T08:21:15.387Z,31.16
2019-04-11T08:22:32.961Z,32.44
2019-04-11T08:23:38.093Z,31.36
2019-04-11T08:25:01.912Z,33.24
2019-04-11T08:26:24.155Z,32.64
2019-04-11T08:27:48.439Z,33.69
2019-04-11T08:28:43.557Z,32.73
2019-04-11T08:29:50.590Z,33.23
2019-04-11T08:31:15.609Z,32.00
2019-04-11T08:32:44.802Z,31.41
2019-04-11T08:33:51.019Z,30.00
2019-04-11T08:35:14.200Z,28.46
2019-04-11T08:36:53.070Z,27.44
2019-04-11T08:38:04.591Z,24.68
2019-04-11T08:39:15.841Z,23.90
2019-04-11T08:40:21.837Z,24.40
2019-04-11T08:41:49.671Z,24.24
2019-04-11T08:43:14.964Z,23.89
2019-04-11T08:44:24.083Z,23.87
2019-04-11T08:46:39.239Z,23.11
2019-04-11T08:47:52.145Z,24.85
2019-04-11T08:48:57.378Z,25.98
2019-04-11T08:50:03.870Z,27.71
2019-04-11T08:51:09.691Z,29.72
2019-04-11T08:52:27.892Z,31.55
2019-04-11T08:53:44.802Z,32.51
2019-04-11T08:55:02.470Z,32.30
2019-04-11T08:56:07.194Z,33.57
2019-04-11T08:57:12.420Z,33.41
2019-04-11T08:58:45.438Z,33.62
2019-04-11T09:00:04.270Z,32.12
2019-04-11T09:01:11.623Z,33.96
2019-04-11T09:02:42.903Z,34.16
2019-04-11T09:04:09.172Z,33.88
2019-04-11T09:05:31.316Z,31.19
2019-04-11T09:06:38.957Z,32.29
2019-04-11T09:07:54.016Z,27.17
2019-04-11T09:09:25.524Z,26.01
2019-04-11T09:10:49.212Z,27.27
2019-04-11T09:12:00.616Z,29.42
2019-04-11T09:13:11.359Z,33.10
2019-04-11T09:14:50.604Z,31.38
2019-04-11T09:16:21.600Z,33.71
2019-04-11T09:17:59.069Z,34.01
2019-04-11T09:18:59.691Z,35.95
2019-04-11T09:20:27.625Z,36.48
2019-04-11T09:21:50.816Z,34.00
2019-04-11T09:23:00.090Z,33.35
2019-04-11T09:24:10.247Z,34.37
2019-04-11T09:25:33.373Z,30.94
2019-04-11T09:26:56.319Z,32.49
2019-04-11T09:28:13.310Z,35.34
2019-04-11T09:29:19.073Z,34.88
2019-04-11T09:30:34.209Z,35.88
2019-04-11T09:31:55.951Z,32.93
2019-04-11T09:33:20.745Z,32.48
2019-04-11T09:34:39.154Z,32.82
2019-04-11T09:35:44.835Z,28.03
2019-04-11T09:37:00.997Z,28.95
2019-04-11T09:38:06.370Z,32.38
2019-04-11T09:39:30.890Z,33.61
2019-04-11T09:40:44.042Z,37.29
2019-04-11T09:42:07.263Z,30.07
2019-04-11T09:43:15.828Z,27.14
2019-04-11T09:44:20.935Z,25.49
2019-04-11T09:45:47.947Z,28.78
2019-04-11T09:47:11.986Z,25.88
2019-04-11T09:48:42.277Z,23.32
2019-04-11T09:49:51.948Z,26.12
2019-04-11T09:51:21.404Z,30.89
2019-04-11T09:52:31.632Z,34.27
2019-04-11T09:53:37.372Z,35.90
2019-04-11T09:55:00.881Z,34.98
2019-04-11T09:56:27.631Z,35.83
2019-04-11T09:57:36.573Z,36.33
2019-04-11T09:58:42.113Z,34.61
2019-04-11T10:00:05.999Z,31.76
2019-04-11T10:01:26.682Z,30.78
2019-04-11T10:02:53.247Z,31.91
2019-04-11T10:03:59.260Z,30.56
2019-04-11T10:05:05.342Z,29.30
2019-04-11T10:06:38.861Z,28.28
2019-04-11T10:08:00.408Z,25.36
2019-04-11T10:09:09.721Z,24.17
2019-04-11T10:10:40.241Z,25.24
2019-04-11T10:12:13.849Z,24.73
2019-04-11T10:13:37.591Z,25.15
2019-04-11T10:14:44.066Z,24.58
2019-04-11T10:16:19.951Z,24.12
2019-04-11T10:17:42.643Z,23.71
2019-04-11T10:19:10.095Z,23.79
2019-04-11T10:20:16.775Z,23.74
2019-04-11T10:21:23.027Z,23.08
2019-04-11T10:22:48.078Z,23.93
2019-04-11T10:24:18.920Z,24.28
2019-04-11T10:25:37.233Z,23.73
2019-04-11T10:26:45.035Z,22.89
2019-04-11T10:28:07.496Z,20.75
2019-04-11T10:29:34.597Z,22.23
2019-04-11T10:30:57.961Z,22.94
2019-04-11T10:32:03.288Z,23.27
2019-04-11T10:33:13.404Z,23.08
2019-04-11T10:34:55.423Z,22.84
2019-04-11T10:36:25.206Z,22.30
2019-04-11T10:37:30.307Z,22.31
2019-04-11T10:38:36.170Z,22.86
2019-04-11T10:40:00.271Z,22.79
2019-04-11T10:41:23.097Z,22.39
2019-04-11T10:42:30.574Z,22.90
2019-04-11T10:43:36.273Z,22.70
2019-04-11T10:45:00.358Z,23.15
2019-04-11T10:46:27.138Z,22.83
2019-04-11T10:47:33.318Z,22.82
2019-04-11T10:48:50.404Z,21.40
2019-04-11T10:50:15.372Z,20.69
2019-04-11T10:51:39.770Z,21.49
2019-04-11T10:52:51.304Z,22.41
2019-04-11T10:53:57.552Z,22.74
2019-04-11T10:55:15.585Z,23.01
2019-04-11T10:56:30.908Z,23.02
2019-04-11T10:57:40.386Z,22.49
2019-04-11T10:58:47.318Z,22.15
2019-04-11T10:59:52.593Z,22.93
2019-04-11T11:01:19.825Z,23.54
2019-04-11T11:02:53.580Z,23.93
2019-04-11T11:04:11.632Z,24.14
2019-04-11T11:05:17.950Z,24.42
2019-04-11T11:06:24.974Z,24.18
2019-04-11T11:07:32.909Z,22.56
2019-04-11T11:08:46.081Z,23.46
2019-04-11T11:10:07.664Z,23.25
2019-04-11T11:11:24.094Z,23.01
2019-04-11T11:12:51.755Z,21.85
2019-04-11T11:14:18.800Z,22.32
2019-04-11T11:15:31.974Z,21.74
2019-04-11T11:16:44.896Z,21.53
2019-04-11T11:19:49.801Z,21.61
2019-04-11T11:20:55.056Z,21.66
2019-04-11T11:22:10.550Z,22.16
2019-04-11T11:23:33.367Z,22.20
2019-04-11T11:25:12.693Z,21.28
2019-04-11T11:26:22.564Z,21.03
2019-04-11T11:27:24.943Z,20.94
2019-04-11T11:28:30.147Z,21.42
2019-04-11T11:29:54.033Z,21.84
2019-04-11T11:31:05.452Z,22.43
2019-04-11T11:32:13.805Z,22.61
2019-04-11T11:33:20.807Z,23.02
2019-04-11T11:34:36.639Z,25.05
2019-04-11T11:36:01.084Z,28.90
2019-04-11T11:37:23.432Z,31.46
2019-04-11T11:38:28.417Z,29.94
2019-04-11T11:39:51.092Z,31.92
2019-04-11T11:41:14.277Z,31.07
2019-04-11T11:42:36.505Z,31.34
2019-04-11T11:43:41.405Z,28.39
2019-04-11T11:44:53.222Z,27.56
2019-04-11T11:46:16.114Z,27.34
2019-04-11T11:47:41.249Z,27.49
2019-04-11T11:49:02.808Z,26.87
2019-04-11T11:50:15.537Z,27.05
2019-04-11T11:51:37.498Z,28.81
2019-04-11T11:53:05.860Z,29.73
2019-04-11T11:54:24.104Z,32.36
2019-04-11T11:55:33.502Z,33.96
2019-04-11T11:56:40.245Z,34.87
2019-04-11T11:57:55.651Z,35.24
2019-04-11T11:59:11.321Z,36.90
2019-04-11T12:00:21.534Z,37.75
2019-04-11T12:01:27.431Z,37.71
2019-04-11T12:02:55.418Z,38.14
2019-04-11T12:04:17.681Z,38.54
2019-04-11T12:05:26.736Z,37.92
2019-04-11T12:06:33.289Z,37.87
2019-04-11T12:07:49.326Z,38.24
2019-04-11T12:09:14.051Z,37.20
2019-04-11T12:10:29.135Z,38.22
2019-04-11T12:11:35.099Z,37.99
2019-04-11T12:13:03.302Z,37.56
2019-04-11T12:14:27.561Z,39.10
2019-04-11T12:16:10.027Z,37.65
2019-04-11T12:17:36.158Z,37.04
2019-04-11T12:19:00.837Z,35.82
2019-04-11T12:20:22.926Z,33.88
2019-04-11T12:21:31.438Z,35.47
2019-04-11T12:22:40.208Z,34.25
2019-04-11T12:24:11.329Z,35.85
2019-04-11T12:25:35.078Z,35.72
2019-04-11T12:26:47.688Z,35.43
2019-04-11T12:28:04.130Z,36.88
2019-04-11T12:29:18.625Z,34.17
2019-04-11T12:30:36.018Z,31.61
2019-04-11T12:31:44.261Z,27.60
2019-04-11T12:32:55.159Z,26.93
2019-04-11T12:34:26.104Z,26.62
2019-04-11T12:36:03.497Z,26.07
2019-04-11T12:37:14.824Z,24.85
2019-04-11T12:38:38.399Z,23.65
2019-04-11T12:39:56.372Z,24.04
2019-04-11T12:41:20.191Z,23.74
2019-04-11T12:42:31.214Z,24.32
2019-04-11T12:43:55.611Z,24.09
2019-04-11T12:45:18.688Z,23.89
2019-04-11T12:46:41.401Z,21.93
2019-04-11T12:47:49.284Z,22.29
2019-04-11T12:48:56.294Z,21.20
2019-04-11T12:50:29.345Z,20.86
2019-04-11T12:51:52.442Z,22.21
2019-04-11T12:53:06.049Z,22.56
2019-04-11T12:54:21.003Z,22.06
2019-04-11T12:55:33.826Z,22.63
2019-04-11T12:57:00.653Z,22.61
2019-04-11T12:58:22.996Z,22.45
2019-04-11T12:59:29.847Z,22.38
2019-04-11T13:00:45.939Z,22.26
2019-04-11T13:02:19.138Z,22.14
2019-04-11T13:04:01.657Z,22.47
2019-04-11T13:05:07.968Z,20.98
2019-04-11T13:06:34.924Z,22.03
2019-04-11T13:07:48.301Z,22.23
2019-04-11T13:09:11.689Z,20.57
2019-04-11T13:10:20.096Z,21.61
2019-04-11T13:11:25.635Z,21.49
2019-04-11T13:12:55.720Z,21.36
2019-04-11T13:14:12.283Z,21.79
2019-04-11T13:15:23.224Z,22.14
2019-04-11T13:16:28.354Z,22.39
2019-04-11T13:17:35.606Z,22.60
2019-04-11T13:18:59.626Z,22.33
2019-04-11T13:20:26.712Z,21.68
2019-04-11T13:21:39.978Z,22.04
2019-04-11T13:22:44.672Z,21.98
2019-04-11T13:24:11.900Z,21.98
2019-04-11T13:25:31.353Z,22.11
2019-04-11T13:27:01.225Z,21.92
2019-04-11T13:28:06.447Z,22.10
2019-04-11T13:29:30.283Z,21.78
2019-04-11T13:30:52.638Z,21.69
2019-04-11T13:32:15.703Z,22.04
2019-04-11T13:33:23.575Z,22.06
2019-04-11T13:34:28.362Z,21.85
2019-04-11T13:35:44.301Z,21.86
2019-04-11T13:37:07.152Z,21.03
2019-04-11T13:38:18.153Z,21.55
2019-04-11T13:39:22.849Z,21.29
2019-04-11T13:41:01.798Z,21.82
2019-04-11T13:42:37.868Z,21.42
2019-04-11T13:44:14.040Z,21.45
2019-04-11T13:45:19.376Z,20.90
2019-04-11T13:46:43.499Z,21.02
2019-04-11T13:48:07.332Z,21.06
2019-04-11T13:49:34.214Z,20.97
2019-04-11T13:50:38.896Z,21.27
2019-04-11T13:52:01.420Z,21.24
2019-04-11T13:53:40.493Z,21.06
2019-04-11T13:55:00.399Z,21.35
2019-04-11T13:56:05.727Z,21.29
2019-04-11T13:57:29.878Z,21.16
2019-04-11T13:58:59.907Z,21.28
2019-04-11T14:00:22.326Z,20.89
2019-04-11T14:01:27.558Z,21.22
2019-04-11T14:02:50.964Z,20.99
2019-04-11T14:04:02.964Z,20.93
2019-04-11T14:05:10.855Z,20.91
2019-04-11T14:06:27.724Z,20.98
2019-04-11T14:07:34.038Z,20.97
2019-04-11T14:09:01.506Z,20.13
2019-04-11T14:10:06.972Z,19.90
2019-04-11T14:11:14.067Z,20.16
2019-04-11T14:12:18.726Z,20.56
2019-04-11T14:13:34.651Z,20.45
2019-04-11T14:15:10.462Z,20.84
2019-04-11T14:16:17.813Z,20.94
2019-04-11T14:17:33.247Z,20.86
2019-04-11T14:18:56.666Z,20.98
2019-04-11T14:20:28.590Z,20.38
2019-04-11T14:21:25.786Z,20.53
2019-04-11T14:22:35.943Z,20.74
2019-04-11T14:24:18.030Z,20.48
2019-04-11T14:25:38.455Z,20.44
2019-04-11T14:26:46.022Z,20.17
2019-04-11T14:27:53.571Z,20.38
2019-04-11T14:29:02.516Z,20.41
2019-04-11T14:30:34.585Z,20.35
2019-04-11T14:31:55.261Z,19.97
2019-04-11T14:33:01.020Z,20.52
2019-04-11T14:34:11.755Z,20.05
2019-04-11T14:35:43.307Z,20.67
2019-04-11T14:36:54.458Z,20.87
2019-04-11T14:38:10.873Z,20.26
2019-04-11T14:39:16.720Z,20.54
2019-04-11T14:40:49.294Z,20.25
2019-04-11T14:42:19.219Z,20.38
2019-04-11T14:43:28.288Z,19.97
2019-04-11T14:44:34.370Z,20.23
2019-04-11T14:45:56.930Z,20.26
2019-04-11T14:47:21.009Z,20.21
2019-04-11T14:48:34.813Z,20.18
2019-04-11T14:49:40.813Z,20.37
2019-04-11T14:51:03.830Z,20.18
2019-04-11T14:52:36.157Z,20.14
2019-04-11T14:54:11.625Z,19.66
2019-04-11T14:55:16.744Z,20.14
2019-04-11T14:56:22.984Z,20.11
2019-04-11T14:57:56.479Z,20.10
2019-04-11T14:59:24.968Z,20.31
2019-04-11T15:00:38.165Z,19.87
2019-04-11T15:01:44.058Z,20.03
2019-04-11T15:03:07.158Z,20.11
2019-04-11T15:04:29.622Z,20.07
2019-04-11T15:05:44.898Z,20.04
2019-04-11T15:06:51.501Z,19.90
2019-04-11T15:07:56.583Z,19.45
2019-04-11T15:09:29.580Z,19.60
2019-04-11T15:10:52.354Z,20.08
2019-04-11T15:12:01.265Z,18.67
2019-04-11T15:13:07.026Z,19.23
2019-04-11T15:14:18.880Z,18.75
2019-04-11T15:15:51.359Z,19.04
2019-04-11T15:17:10.895Z,19.36
2019-04-11T15:18:17.094Z,19.46
2019-04-11T15:19:23.854Z,19.29
2019-04-11T15:20:53.876Z,19.42
2019-04-11T15:22:03.964Z,19.24
2019-04-11T15:23:26.553Z,18.47
2019-04-11T15:24:31.771Z,19.30
2019-04-11T15:26:07.859Z,19.23
2019-04-11T15:27:32.977Z,19.14
2019-04-11T15:28:51.162Z,19.41
2019-04-11T15:29:57.492Z,19.03
2019-04-11T15:31:09.700Z,18.37
2019-04-11T15:32:42.838Z,18.13
2019-04-11T15:33:55.485Z,18.75
2019-04-11T15:35:06.346Z,19.14
2019-04-11T15:36:12.344Z,19.11
2019-04-11T15:37:48.131Z,19.09
2019-04-11T15:39:10.571Z,19.02
2019-04-11T15:40:36.946Z,18.75
2019-04-11T15:41:42.580Z,18.94
2019-04-11T15:43:21.991Z,18.68
2019-04-11T15:44:45.581Z,18.46
2019-04-11T15:46:02.278Z,18.56
2019-04-11T15:47:09.624Z,18.72
2019-04-11T15:48:30.287Z,18.54
2019-04-11T15:50:00.464Z,18.21
2019-04-11T15:51:28.790Z,18.21
2019-04-11T15:52:34.692Z,18.44
2019-04-11T15:53:55.447Z,18.67
2019-04-11T15:55:17.173Z,18.58
2019-04-11T15:56:41.837Z,18.53
2019-04-11T15:57:53.135Z,18.50
2019-04-11T15:59:04.469Z,18.52
2019-04-11T16:00:31.561Z,18.36
2019-04-11T16:02:07.313Z,18.03
2019-04-11T16:03:13.906Z,18.30
2019-04-11T16:04:33.915Z,18.39
2019-04-11T16:05:57.059Z,18.13
2019-04-11T16:07:24.791Z,18.29
2019-04-11T16:08:31.561Z,18.17
2019-04-11T16:09:36.803Z,17.88
2019-04-11T16:10:47.838Z,18.08
2019-04-11T16:11:57.900Z,17.72
2019-04-11T16:13:09.378Z,17.70
2019-04-11T16:14:42.202Z,17.63
2019-04-11T16:15:47.801Z,17.87
2019-04-11T16:17:13.857Z,17.15
2019-04-11T16:18:49.057Z,17.48
2019-04-11T16:20:18.204Z,17.45
2019-04-11T16:21:27.845Z,17.58
2019-04-11T16:22:49.974Z,17.42
2019-04-11T16:24:22.324Z,17.85
2019-04-11T16:25:29.191Z,17.68
2019-04-11T16:26:50.649Z,17.14
2019-04-11T16:28:14.784Z,17.25
2019-04-11T16:29:26.359Z,17.26
2019-04-11T16:30:32.126Z,17.35
2019-04-11T16:31:41.272Z,17.46
2019-04-11T16:32:52.154Z,17.46
2019-04-11T16:34:18.841Z,17.25
2019-04-11T16:35:35.302Z,17.05
2019-04-11T16:36:51.634Z,17.08
2019-04-11T16:38:00.424Z,17.12
2019-04-11T16:39:32.992Z,17.21
2019-04-11T16:41:05.972Z,16.98
2019-04-11T16:42:12.418Z,17.04
2019-04-11T16:43:16.948Z,16.93
2019-04-11T16:45:01.511Z,17.03
2019-04-11T16:46:25.308Z,17.11
2019-04-11T16:47:48.616Z,17.11
2019-04-11T16:48:55.620Z,16.73
2019-04-11T16:50:00.188Z,16.68
2019-04-11T16:51:06.039Z,16.25
2019-04-11T16:52:11.157Z,16.64
2019-04-11T16:53:16.758Z,16.37
2019-04-11T16:54:21.644Z,16.72
2019-04-11T16:55:26.597Z,16.96
2019-04-11T16:56:32.053Z,16.96
2019-04-11T16:57:37.038Z,16.88
2019-04-11T16:58:41.998Z,16.41
2019-04-11T16:59:49.567Z,16.41
2019-04-11T17:00:53.659Z,16.42
2019-04-11T17:01:58.586Z,16.58
2019-04-11T17:03:03.357Z,16.58
2019-04-11T17:04:08.035Z,16.32
2019-04-11T17:05:12.964Z,16.28
2019-04-11T17:06:42.271Z,16.55
2019-04-11T17:08:06.342Z,16.55
2019-04-11T17:09:18.223Z,16.40
2019-04-11T17:10:42.083Z,16.73
2019-04-11T17:11:47.633Z,16.14
2019-04-11T17:12:53.848Z,15.81
2019-04-11T17:13:59.276Z,15.78
2019-04-11T17:15:04.278Z,16.22
2019-04-11T17:16:12.344Z,16.22
2019-04-11T17:17:17.478Z,16.42
2019-04-11T17:18:22.343Z,16.42
2019-04-11T17:19:27.833Z,16.22
2019-04-11T17:20:35.717Z,15.73
2019-04-11T17:21:43.551Z,15.94
2019-04-11T17:22:46.692Z,16.20
2019-04-11T17:23:52.803Z,15.80
2019-04-11T17:24:57.687Z,15.80
2019-04-11T17:26:02.632Z,15.86
2019-04-11T17:27:07.304Z,16.04
2019-04-11T17:28:12.504Z,15.83
2019-04-11T17:29:20.209Z,15.28
2019-04-11T17:30:24.728Z,15.65
2019-04-11T17:31:30.126Z,15.69
2019-04-11T17:32:35.014Z,15.84
2019-04-11T17:33:39.763Z,15.85
2019-04-11T17:34:44.982Z,15.86
2019-04-11T17:35:49.556Z,15.86
2019-04-11T17:36:54.503Z,15.78
2019-04-11T17:38:01.080Z,15.67
2019-04-11T17:39:08.286Z,15.78
2019-04-11T17:40:13.236Z,15.85
2019-04-11T17:41:18.495Z,15.54
2019-04-11T17:42:23.561Z,15.75
2019-04-11T17:43:28.852Z,15.95
2019-04-11T17:44:33.820Z,15.50
2019-04-11T17:45:38.849Z,15.38
2019-04-11T17:46:44.259Z,15.51
2019-04-11T17:47:49.751Z,15.55
2019-04-11T17:48:54.983Z,15.55
2019-04-11T17:50:04.122Z,15.51
2019-04-11T17:51:09.516Z,15.27
2019-04-11T17:52:14.202Z,15.27
2019-04-11T17:53:19.072Z,15.34
2019-04-11T17:54:24.985Z,15.54
2019-04-11T17:55:30.535Z,15.49
2019-04-11T17:56:35.515Z,15.30
2019-04-11T17:57:40.175Z,15.40
2019-04-11T17:58:45.651Z,15.33
2019-04-11T17:59:50.894Z,14.99
2019-04-11T18:01:00.279Z,15.13
2019-04-11T18:02:05.513Z,15.31
2019-04-11T18:03:12.031Z,15.18
2019-04-11T18:04:17.156Z,15.27
2019-04-11T18:05:22.257Z,15.13
2019-04-11T18:06:27.263Z,14.95
2019-04-11T18:07:31.680Z,14.66
2019-04-11T18:08:36.662Z,15.08
2019-04-11T18:09:41.643Z,15.10
2019-04-11T18:10:46.326Z,15.05
2019-04-11T18:11:51.576Z,15.07
2019-04-11T18:13:00.272Z,14.82